createdAt,value
2018-05-21T00:01:00.837Z,7.55
2018-05-21T00:03:38.496Z,8.07
2018-05-21T00:06:19.189Z,8.70
2018-05-21T00:08:56.358Z,7.62
2018-05-21T00:11:34.082Z,8.35
2018-05-21T00:14:11.094Z,8.90
2018-05-21T00:16:49.796Z,8.35
2018-05-21T00:19:27.079Z,9.50
2018-05-21T00:22:03.742Z,8.82
2018-05-21T00:24:41.060Z,8.02
2018-05-21T00:27:19.242Z,8.50
2018-05-21T00:29:58.212Z,8.52
2018-05-21T00:32:37.500Z,8.43
2018-05-21T00:35:14.161Z,8.40
2018-05-21T00:37:52.189Z,8.07
2018-05-21T00:40:29.057Z,7.87
2018-05-21T00:43:04.725Z,7.82
2018-05-21T00:45:42.733Z,8.93
2018-05-21T00:48:20.103Z,7.82
2018-05-21T00:50:57.976Z,8.52
2018-05-21T00:53:36.074Z,8.93
2018-05-21T00:56:12.923Z,8.23
2018-05-21T00:58:50.984Z,8.57
2018-05-21T01:01:29.189Z,8.60
2018-05-21T01:04:08.633Z,8.88
2018-05-21T01:06:45.578Z,8.18
2018-05-21T01:09:23.820Z,8.15
2018-05-21T01:12:00.009Z,8.70
2018-05-21T01:14:38.096Z,9.48
2018-05-21T01:17:16.669Z,9.20
2018-05-21T01:19:52.867Z,9.43
2018-05-21T01:22:30.252Z,9.70
2018-05-21T01:25:06.269Z,8.68
2018-05-21T01:27:44.942Z,8.35
2018-05-21T01:30:22.389Z,8.52
2018-05-21T01:33:00.081Z,8.98
2018-05-21T01:35:38.295Z,8.73
2018-05-21T01:38:15.185Z,9.02
2018-05-21T01:40:53.430Z,9.50
2018-05-21T01:43:30.368Z,9.35
2018-05-21T01:46:07.672Z,9.48
2018-05-21T01:48:44.777Z,9.27
2018-05-21T01:51:22.308Z,9.07
2018-05-21T01:53:59.102Z,9.60
2018-05-21T01:56:36.009Z,10.32
2018-05-21T01:59:13.954Z,9.43
2018-05-21T02:01:51.719Z,9.52
2018-05-21T02:04:28.606Z,9.13
2018-05-21T02:07:05.024Z,10.05
2018-05-21T02:09:43.255Z,9.18
2018-05-21T02:12:20.783Z,9.77
2018-05-21T02:14:57.531Z,9.68
2018-05-21T02:17:35.416Z,9.55
2018-05-21T02:20:12.217Z,9.90
2018-05-21T02:22:48.622Z,10.02
2018-05-21T02:25:25.493Z,9.60
2018-05-21T02:28:04.073Z,9.50
2018-05-21T02:30:40.936Z,9.40
2018-05-21T02:33:18.225Z,9.55
2018-05-21T02:35:56.024Z,9.73
2018-05-21T02:38:33.104Z,10.00
2018-05-21T02:41:09.708Z,9.93
2018-05-21T02:43:46.482Z,9.43
2018-05-21T02:46:23.754Z,9.80
2018-05-21T02:49:00.410Z,9.65
2018-05-21T02:51:37.399Z,9.32
2018-05-21T02:54:14.981Z,9.55
2018-05-21T02:56:51.972Z,10.27
2018-05-21T02:59:30.252Z,9.23
2018-05-21T03:02:06.248Z,10.20
2018-05-21T03:04:43.521Z,10.00
2018-05-21T03:07:21.151Z,10.00
2018-05-21T03:09:59.037Z,9.25
2018-05-21T03:12:36.225Z,9.98
2018-05-21T03:15:13.480Z,9.93
2018-05-21T03:17:50.578Z,9.48
2018-05-21T03:20:27.687Z,10.52
2018-05-21T03:23:04.175Z,10.32
2018-05-21T03:25:40.702Z,10.50
2018-05-21T03:28:18.958Z,10.20
2018-05-21T03:30:55.410Z,10.13
2018-05-21T03:33:32.140Z,11.07
2018-05-21T03:36:09.737Z,10.10
2018-05-21T03:38:47.622Z,9.60
2018-05-21T03:41:26.150Z,9.45
2018-05-21T03:44:02.521Z,10.35
2018-05-21T03:46:40.439Z,10.13
2018-05-21T03:49:18.024Z,10.68
2018-05-21T03:51:54.696Z,10.07
2018-05-21T03:54:31.353Z,9.95
2018-05-21T03:57:07.880Z,10.55
2018-05-21T04:00:01.667Z,10.63
2018-05-21T04:02:56.580Z,9.90
2018-05-21T04:05:36.514Z,10.10
2018-05-21T04:08:13.672Z,9.80
2018-05-21T04:10:50.692Z,9.27
2018-05-21T04:13:28.330Z,10.05
2018-05-21T04:16:05.434Z,9.90
2018-05-21T04:18:43.576Z,9.27
2018-05-21T04:21:19.808Z,8.40
2018-05-21T04:23:56.925Z,8.85
2018-05-21T04:26:34.712Z,9.25
2018-05-21T04:29:12.866Z,9.43
2018-05-21T04:31:50.234Z,10.20
2018-05-21T04:34:27.818Z,9.40
2018-05-21T04:37:06.686Z,8.98
2018-05-21T04:39:43.545Z,9.30
2018-05-21T04:42:21.220Z,9.40
2018-05-21T04:44:59.312Z,9.82
2018-05-21T04:47:38.320Z,10.43
2018-05-21T04:50:15.236Z,10.55
2018-05-21T04:52:52.829Z,9.02
2018-05-21T04:55:30.426Z,9.75
2018-05-21T04:58:08.016Z,10.35
2018-05-21T05:00:45.016Z,9.23
2018-05-21T05:03:22.315Z,8.95
2018-05-21T05:05:59.817Z,9.27
2018-05-21T05:08:39.343Z,8.93
2018-05-21T05:11:16.525Z,9.80
2018-05-21T05:13:53.891Z,8.57
2018-05-21T05:16:30.581Z,9.40
2018-05-21T05:19:07.849Z,9.20
2018-05-21T05:21:45.745Z,8.93
2018-05-21T05:24:23.391Z,8.20
2018-05-21T05:27:01.234Z,7.32
2018-05-21T05:29:39.138Z,7.90
2018-05-21T05:32:16.441Z,7.78
2018-05-21T05:34:53.570Z,7.18
2018-05-21T05:37:31.368Z,7.65
2018-05-21T05:40:08.926Z,6.78
2018-05-21T05:42:46.805Z,7.43
2018-05-21T05:45:23.315Z,7.20
2018-05-21T05:48:01.020Z,7.12
2018-05-21T05:50:38.046Z,6.00
2018-05-21T05:53:18.631Z,6.70
2018-05-21T05:55:57.821Z,7.25
2018-05-21T05:58:35.847Z,7.85
2018-05-21T06:01:15.346Z,6.25
2018-05-21T06:03:53.720Z,6.47
2018-05-21T06:06:31.292Z,6.10
2018-05-21T06:09:08.741Z,5.83
2018-05-21T06:11:45.978Z,5.67
2018-05-21T06:14:23.785Z,5.80
2018-05-21T06:17:00.805Z,5.60
2018-05-21T06:19:36.713Z,5.70
2018-05-21T06:22:13.806Z,5.23
2018-05-21T06:24:50.794Z,5.50
2018-05-21T06:27:28.575Z,5.27
2018-05-21T06:30:06.525Z,5.77
2018-05-21T06:32:44.012Z,4.80
2018-05-21T06:35:21.748Z,6.00
2018-05-21T06:38:00.653Z,5.50
2018-05-21T06:40:37.584Z,5.33
2018-05-21T06:43:14.248Z,5.40
2018-05-21T06:45:51.593Z,4.90
2018-05-21T06:48:30.229Z,5.00
2018-05-21T06:51:07.767Z,5.27
2018-05-21T06:53:47.002Z,4.93
2018-05-21T06:56:26.025Z,4.80
2018-05-21T06:59:03.193Z,4.33
2018-05-21T07:01:40.615Z,4.00
2018-05-21T07:04:19.545Z,4.60
2018-05-21T07:06:57.010Z,4.60
2018-05-21T07:09:35.016Z,4.70
2018-05-21T07:12:13.070Z,5.03
2018-05-21T07:14:51.877Z,4.43
2018-05-21T07:17:28.897Z,4.27
2018-05-21T07:20:05.943Z,3.83
2018-05-21T07:22:43.071Z,4.13
2018-05-21T07:25:20.986Z,4.40
2018-05-21T07:27:59.038Z,3.67
2018-05-21T07:30:36.878Z,3.90
2018-05-21T07:33:14.858Z,4.33
2018-05-21T07:35:51.445Z,4.37
2018-05-21T07:38:30.462Z,4.20
2018-05-21T07:41:07.710Z,4.23
2018-05-21T07:43:46.764Z,3.50
2018-05-21T07:46:25.628Z,4.07
2018-05-21T07:49:03.422Z,4.10
2018-05-21T07:51:45.318Z,4.20
2018-05-21T07:54:22.509Z,3.47
2018-05-21T07:57:02.038Z,4.87
2018-05-21T07:59:40.853Z,3.17
2018-05-21T08:02:18.745Z,3.53
2018-05-21T08:04:57.933Z,2.90
2018-05-21T08:07:36.508Z,2.80
2018-05-21T08:10:16.405Z,2.60
2018-05-21T08:12:55.184Z,2.77
2018-05-21T08:15:34.630Z,3.00
2018-05-21T08:18:11.909Z,3.40
2018-05-21T08:20:49.281Z,3.00
2018-05-21T08:23:26.188Z,3.73
2018-05-21T08:26:02.732Z,2.83
2018-05-21T08:28:41.569Z,2.83
2018-05-21T08:31:18.361Z,2.50
2018-05-21T08:33:55.879Z,2.63
2018-05-21T08:36:34.936Z,2.83
2018-05-21T08:39:12.095Z,3.00
2018-05-21T08:41:48.441Z,2.70
2018-05-21T08:44:25.693Z,2.60
2018-05-21T08:47:03.003Z,2.80
2018-05-21T08:49:39.978Z,3.20
2018-05-21T08:52:18.240Z,3.10
2018-05-21T08:54:55.506Z,2.50
2018-05-21T08:57:32.922Z,3.07
2018-05-21T09:00:09.849Z,3.07
2018-05-21T09:02:47.047Z,2.60
2018-05-21T09:05:25.191Z,2.60
2018-05-21T09:08:03.142Z,2.77
2018-05-21T09:10:40.109Z,2.67
2018-05-21T09:13:17.463Z,2.30
2018-05-21T09:15:55.811Z,2.83
2018-05-21T09:18:32.929Z,2.43
2018-05-21T09:21:10.566Z,2.97
2018-05-21T09:23:47.261Z,2.60
2018-05-21T09:26:25.145Z,2.60
2018-05-21T09:29:02.457Z,2.50
2018-05-21T09:31:40.239Z,2.70
2018-05-21T09:34:18.162Z,2.80
2018-05-21T09:36:55.653Z,2.77
2018-05-21T09:39:32.710Z,2.60
2018-05-21T09:42:10.743Z,3.10
2018-05-21T09:44:49.346Z,2.53
2018-05-21T09:47:28.347Z,2.33
2018-05-21T09:50:05.177Z,2.60
2018-05-21T09:52:41.760Z,2.40
2018-05-21T09:55:18.671Z,2.40
2018-05-21T09:57:55.620Z,2.80
2018-05-21T10:00:34.093Z,2.30
2018-05-21T10:03:11.980Z,2.00
2018-05-21T10:05:49.047Z,2.77
2018-05-21T10:08:26.875Z,2.77
2018-05-21T10:11:03.507Z,2.47
2018-05-21T10:13:41.446Z,3.30
2018-05-21T10:16:20.119Z,2.47
2018-05-21T10:18:57.283Z,3.03
2018-05-21T10:21:34.537Z,2.67
2018-05-21T10:24:12.773Z,2.60
2018-05-21T10:26:50.535Z,2.77
2018-05-21T10:29:28.367Z,2.47
2018-05-21T10:32:05.144Z,2.37
2018-05-21T10:34:42.498Z,3.30
2018-05-21T10:37:18.609Z,3.27
2018-05-21T10:39:57.401Z,2.80
2018-05-21T10:42:34.487Z,2.87
2018-05-21T10:45:11.648Z,2.70
2018-05-21T10:47:50.170Z,2.73
2018-05-21T10:50:29.033Z,3.40
2018-05-21T10:53:05.649Z,2.73
2018-05-21T10:55:44.490Z,2.50
2018-05-21T10:58:21.744Z,2.30
2018-05-21T11:00:59.819Z,2.43
2018-05-21T11:03:36.321Z,2.70
2018-05-21T11:06:13.155Z,2.57
2018-05-21T11:08:50.411Z,2.80
2018-05-21T11:11:26.785Z,3.33
2018-05-21T11:14:03.916Z,2.70
2018-05-21T11:16:43.065Z,2.63
2018-05-21T11:19:20.427Z,3.20
2018-05-21T11:21:58.352Z,2.93
2018-05-21T11:24:37.349Z,3.13
2018-05-21T11:27:14.118Z,2.83
2018-05-21T11:29:51.061Z,4.00
2018-05-21T11:32:28.340Z,3.10
2018-05-21T11:35:05.570Z,3.40
2018-05-21T11:37:43.305Z,3.07
2018-05-21T11:40:20.608Z,2.87
2018-05-21T11:42:58.960Z,3.20
2018-05-21T11:45:36.309Z,3.10
2018-05-21T11:48:14.173Z,2.80
2018-05-21T11:50:52.810Z,3.00
2018-05-21T11:53:29.402Z,3.03
2018-05-21T11:56:06.042Z,3.03
2018-05-21T11:58:43.352Z,2.80
2018-05-21T12:01:22.432Z,2.80
2018-05-21T12:03:59.201Z,2.93
2018-05-21T12:06:35.542Z,2.70
2018-05-21T12:09:12.799Z,3.20
2018-05-21T12:11:50.005Z,3.00
2018-05-21T12:14:26.990Z,3.00
2018-05-21T12:17:04.619Z,3.20
2018-05-21T12:19:41.965Z,3.23
2018-05-21T12:22:20.051Z,3.00
2018-05-21T12:24:57.447Z,3.20
2018-05-21T12:27:33.591Z,3.40
2018-05-21T12:30:10.900Z,2.90
2018-05-21T12:32:48.139Z,2.97
2018-05-21T12:35:24.710Z,2.67
2018-05-21T12:38:04.138Z,3.00
2018-05-21T12:40:41.494Z,3.13
2018-05-21T12:43:18.171Z,3.03
2018-05-21T12:45:55.262Z,3.03
2018-05-21T12:48:32.031Z,3.23
2018-05-21T12:51:10.034Z,2.53
2018-05-21T12:53:47.426Z,3.70
2018-05-21T12:56:24.596Z,2.90
2018-05-21T12:59:01.867Z,3.43
2018-05-21T13:01:38.556Z,3.07
2018-05-21T13:04:15.209Z,2.80
2018-05-21T13:06:53.373Z,2.77
2018-05-21T13:09:31.016Z,2.80
2018-05-21T13:12:09.290Z,2.80
2018-05-21T13:14:47.133Z,3.00
2018-05-21T13:17:24.117Z,2.90
2018-05-21T13:20:03.223Z,2.77
2018-05-21T13:22:39.918Z,3.37
2018-05-21T13:25:17.533Z,3.40
2018-05-21T13:27:54.956Z,3.10
2018-05-21T13:30:32.717Z,3.20
2018-05-21T13:33:09.739Z,2.90
2018-05-21T13:35:46.666Z,3.20
2018-05-21T13:38:24.755Z,3.50
2018-05-21T13:41:02.524Z,3.27
2018-05-21T13:43:40.677Z,9.57
2018-05-21T13:46:18.572Z,3.17
2018-05-21T13:48:55.393Z,2.97
2018-05-21T13:51:33.873Z,3.37
2018-05-21T13:54:10.750Z,4.00
2018-05-21T13:56:47.721Z,3.37
2018-05-21T13:59:24.725Z,2.60
2018-05-21T14:02:02.696Z,4.53
2018-05-21T14:04:39.918Z,4.20
2018-05-21T14:07:17.400Z,2.80
2018-05-21T14:09:54.845Z,3.10
2018-05-21T14:12:31.761Z,2.80
2018-05-21T14:15:09.986Z,3.10
2018-05-21T14:17:47.260Z,3.07
2018-05-21T14:20:24.410Z,2.90
2018-05-21T14:23:00.779Z,3.03
2018-05-21T14:25:37.590Z,3.03
2018-05-21T14:28:14.181Z,3.30
2018-05-21T14:30:52.455Z,3.30
2018-05-21T14:33:30.109Z,2.63
2018-05-21T14:36:07.615Z,2.80
2018-05-21T14:38:45.489Z,3.20
2018-05-21T14:41:22.368Z,2.70
2018-05-21T14:44:00.103Z,3.47
2018-05-21T14:46:37.962Z,3.17
2018-05-21T14:49:13.733Z,2.87
2018-05-21T14:51:50.645Z,3.30
2018-05-21T14:54:27.499Z,3.30
2018-05-21T14:57:05.022Z,2.93
2018-05-21T14:59:42.140Z,3.00
2018-05-21T15:02:19.395Z,3.07
2018-05-21T15:04:56.882Z,3.00
2018-05-21T15:07:35.084Z,3.30
2018-05-21T15:10:12.945Z,2.83
2018-05-21T15:12:49.509Z,2.90
2018-05-21T15:15:26.624Z,3.10
2018-05-21T15:18:04.239Z,3.00
2018-05-21T15:20:41.808Z,3.30
2018-05-21T15:23:19.106Z,2.60
2018-05-21T15:25:56.197Z,3.20
2018-05-21T15:28:33.133Z,3.10
2018-05-21T15:31:10.972Z,2.80
2018-05-21T15:33:48.745Z,2.80
2018-05-21T15:36:25.570Z,2.87
2018-05-21T15:39:03.246Z,2.83
2018-05-21T15:41:40.707Z,2.63
2018-05-21T15:44:17.721Z,2.73
2018-05-21T15:46:55.001Z,2.77
2018-05-21T15:49:33.464Z,2.80
2018-05-21T15:52:11.729Z,2.90
2018-05-21T15:54:49.373Z,3.00
2018-05-21T15:57:26.731Z,2.40
2018-05-21T16:00:03.342Z,2.90
2018-05-21T16:02:40.892Z,2.73
2018-05-21T16:05:18.060Z,3.70
2018-05-21T16:07:55.372Z,2.60
2018-05-21T16:10:32.143Z,2.30
2018-05-21T16:13:09.624Z,2.50
2018-05-21T16:15:47.890Z,3.90
2018-05-21T16:18:24.083Z,2.70
2018-05-21T16:21:02.501Z,2.60
2018-05-21T16:23:39.574Z,2.97
2018-05-21T16:26:16.583Z,2.90
2018-05-21T16:28:54.044Z,2.70
2018-05-21T16:31:30.709Z,3.00
2018-05-21T16:34:08.973Z,3.13
2018-05-21T16:36:46.213Z,2.93
2018-05-21T16:39:24.418Z,2.93
2018-05-21T16:42:01.354Z,3.30
2018-05-21T16:44:37.885Z,3.10
2018-05-21T16:47:15.133Z,3.13
2018-05-21T16:49:52.325Z,2.77
2018-05-21T16:52:28.443Z,2.77
2018-05-21T16:55:05.339Z,3.00
2018-05-21T16:57:44.716Z,2.73
2018-05-21T17:00:21.586Z,3.20
2018-05-21T17:02:59.389Z,3.17
2018-05-21T17:05:36.867Z,4.67
2018-05-21T17:08:13.052Z,6.63
2018-05-21T17:10:49.430Z,3.50
2018-05-21T17:13:28.263Z,3.70
2018-05-21T17:16:04.762Z,3.67
2018-05-21T17:18:43.580Z,3.30
2018-05-21T17:21:20.680Z,3.53
2018-05-21T17:23:57.383Z,3.50
2018-05-21T17:26:34.054Z,4.67
2018-05-21T17:29:11.963Z,3.90
2018-05-21T17:31:49.923Z,3.57
2018-05-21T17:34:28.009Z,3.70
2018-05-21T17:37:04.437Z,3.17
2018-05-21T17:39:42.037Z,4.03
2018-05-21T17:42:18.309Z,3.90
2018-05-21T17:44:55.384Z,3.13
2018-05-21T17:47:32.160Z,3.50
2018-05-21T17:50:10.015Z,3.30
2018-05-21T17:52:48.566Z,4.57
2018-05-21T17:55:24.841Z,3.10
2018-05-21T17:58:01.066Z,3.77
2018-05-21T18:00:37.691Z,3.10
2018-05-21T18:03:15.281Z,3.57
2018-05-21T18:05:52.438Z,2.77
2018-05-21T18:08:29.595Z,4.43
2018-05-21T18:11:06.689Z,3.80
2018-05-21T18:13:45.597Z,4.63
2018-05-21T18:16:21.888Z,3.73
2018-05-21T18:18:58.984Z,4.00
2018-05-21T18:21:36.565Z,3.27
2018-05-21T18:24:14.069Z,3.20
2018-05-21T18:26:51.959Z,4.27
2018-05-21T18:29:29.875Z,3.87
2018-05-21T18:32:09.239Z,3.40
2018-05-21T18:34:46.909Z,3.60
2018-05-21T18:37:23.813Z,3.60
2018-05-21T18:40:00.505Z,2.80
2018-05-21T18:42:37.651Z,3.07
2018-05-21T18:45:14.208Z,3.80
2018-05-21T18:47:50.687Z,3.40
2018-05-21T18:50:28.253Z,3.10
2018-05-21T18:53:05.552Z,2.87
2018-05-21T18:55:43.961Z,3.60
2018-05-21T18:58:20.349Z,4.30
2018-05-21T19:00:56.675Z,3.30
2018-05-21T19:03:33.686Z,3.20
2018-05-21T19:06:11.604Z,2.73
2018-05-21T19:08:49.805Z,3.30
2018-05-21T19:11:27.693Z,3.70
2018-05-21T19:14:04.333Z,3.10
2018-05-21T19:16:42.564Z,3.90
2018-05-21T19:19:20.160Z,3.20
2018-05-21T19:21:56.520Z,3.43
2018-05-21T19:24:34.576Z,3.37
2018-05-21T19:27:12.117Z,3.50
2018-05-21T19:29:48.704Z,3.30
2018-05-21T19:32:25.187Z,3.40
2018-05-21T19:35:02.344Z,3.10
2018-05-21T19:37:39.933Z,2.80
2018-05-21T19:40:16.952Z,3.43
2018-05-21T19:42:54.187Z,3.27
2018-05-21T19:45:31.507Z,3.00
2018-05-21T19:48:07.575Z,3.23
2018-05-21T19:50:49.331Z,3.13
2018-05-21T19:53:26.755Z,3.40
2018-05-21T19:56:04.189Z,3.60
2018-05-21T19:58:41.436Z,3.03
2018-05-21T20:01:17.960Z,3.70
2018-05-21T20:03:57.601Z,3.47
2018-05-21T20:06:33.969Z,2.93
2018-05-21T20:09:11.702Z,3.37
2018-05-21T20:11:50.223Z,2.97
2018-05-21T20:14:26.128Z,3.43
2018-05-21T20:17:04.160Z,3.13
2018-05-21T20:19:41.149Z,3.10
2018-05-21T20:22:18.957Z,3.67
2018-05-21T20:24:57.053Z,3.30
2018-05-21T20:27:34.944Z,3.33
2018-05-21T20:30:11.980Z,3.40
2018-05-21T20:32:50.075Z,3.37
2018-05-21T20:35:26.453Z,4.20
2018-05-21T20:38:03.047Z,3.63
2018-05-21T20:40:41.049Z,3.77
2018-05-21T20:43:20.482Z,3.30
2018-05-21T20:45:58.622Z,3.33
2018-05-21T20:48:38.074Z,3.30
2018-05-21T20:51:15.823Z,3.40
2018-05-21T20:53:53.726Z,3.60
2018-05-21T20:56:32.016Z,3.17
2018-05-21T20:59:10.532Z,3.50
2018-05-21T21:01:47.602Z,3.67
2018-05-21T21:04:24.969Z,3.93
2018-05-21T21:07:02.706Z,3.83
2018-05-21T21:09:43.662Z,3.90
2018-05-21T21:12:20.469Z,3.53
2018-05-21T21:14:58.341Z,4.03
2018-05-21T21:17:35.581Z,3.07
2018-05-21T21:20:13.382Z,3.30
2018-05-21T21:22:50.674Z,3.30
2018-05-21T21:25:27.797Z,3.77
2018-05-21T21:28:04.121Z,3.23
2018-05-21T21:30:40.116Z,3.33
2018-05-21T21:33:17.909Z,3.60
2018-05-21T21:35:56.315Z,3.53
2018-05-21T21:38:33.461Z,3.65
2018-05-21T21:41:10.238Z,3.80
2018-05-21T21:43:47.534Z,4.00
2018-05-21T21:46:26.025Z,3.62
2018-05-21T21:49:03.882Z,4.07
2018-05-21T21:51:41.352Z,4.37
2018-05-21T21:54:19.252Z,4.32
2018-05-21T21:56:56.423Z,4.50
2018-05-21T21:59:35.678Z,4.57
2018-05-21T22:02:13.925Z,4.78
2018-05-21T22:04:52.578Z,4.65
2018-05-21T22:07:29.518Z,4.35
2018-05-21T22:10:05.750Z,4.03
2018-05-21T22:12:43.913Z,3.90
2018-05-21T22:15:22.329Z,4.50
2018-05-21T22:17:58.820Z,4.57
2018-05-21T22:20:35.519Z,4.22
2018-05-21T22:23:13.913Z,3.87
2018-05-21T22:25:51.468Z,4.40
2018-05-21T22:28:29.544Z,4.05
2018-05-21T22:31:06.808Z,4.12
2018-05-21T22:33:43.965Z,5.45
2018-05-21T22:36:20.615Z,4.68
2018-05-21T22:38:57.312Z,4.50
2018-05-21T22:41:34.852Z,4.40
2018-05-21T22:44:13.837Z,4.78
2018-05-21T22:46:50.042Z,5.25
2018-05-21T22:49:27.950Z,4.50
2018-05-21T22:52:06.205Z,4.82
2018-05-21T22:54:44.191Z,5.18
2018-05-21T22:57:22.297Z,5.28
2018-05-21T22:59:59.315Z,4.85
2018-05-21T23:02:37.638Z,4.87
2018-05-21T23:05:16.939Z,4.78
2018-05-21T23:07:54.225Z,4.55
2018-05-21T23:10:31.041Z,4.78
2018-05-21T23:13:09.121Z,5.57
2018-05-21T23:15:46.977Z,4.57
2018-05-21T23:18:23.678Z,4.82
2018-05-21T23:21:02.160Z,4.90
2018-05-21T23:23:39.295Z,4.78
2018-05-21T23:26:17.837Z,4.20
2018-05-21T23:28:54.790Z,5.25
2018-05-21T23:31:31.649Z,5.93
2018-05-21T23:34:08.922Z,4.85
2018-05-21T23:36:47.449Z,4.65
2018-05-21T23:39:24.689Z,4.40
2018-05-21T23:42:02.349Z,4.97
2018-05-21T23:44:41.184Z,4.62
2018-05-21T23:47:18.801Z,4.00
2018-05-21T23:49:56.949Z,4.15
2018-05-21T23:52:34.461Z,5.22
2018-05-21T23:55:11.813Z,4.20
2018-05-21T23:57:49.676Z,4.50
